Time;durP1;ratioP1;P1;durP2;ratioP2;P2;SDS_P1;SDS_P2;PMS_P1;PMS_P2;Temp;Humidity;BMP_temperature;BMP_pressure;BME280_temperature;BME280_humidity;BME280_pressure;Samples;Min_cycle;Max_cycle;Signal;HPM_P1;HPM_P2
2021/08/11 00:00:11;;;;;;;4.82;4.18;;;14.70;1.40;;;16.68;100.00;95708.69;645349;216;31563;-71
2021/08/11 00:02:52;;;;;;;5.50;4.40;;;14.60;1.40;;;16.59;100.00;95716.68;644929;216;31589;-71
2021/08/11 00:05:33;;;;;;;4.93;4.18;;;14.60;1.40;;;16.57;100.00;95716.25;644819;212;31569;-71
2021/08/11 00:08:18;;;;;;;5.10;3.97;;;14.50;1.40;;;16.35;100.00;95716.97;648167;216;31798;-71
2021/08/11 00:11:00;;;;;;;5.07;4.25;;;14.30;1.40;;;16.26;100.00;95725.25;618819;226;32188;-70
2021/08/11 00:13:41;;;;;;;6.62;4.30;;;14.30;1.40;;;16.07;100.00;95726.67;645916;212;31527;-71
2021/08/11 00:16:23;;;;;;;5.77;4.13;;;14.40;1.40;;;16.11;100.00;95733.50;652565;212;31556;-71
2021/08/11 00:19:05;;;;;;;4.70;4.30;;;14.50;1.40;;;16.16;100.00;95742.84;649495;216;31599;-71
2021/08/11 00:21:46;;;;;;;5.00;4.37;;;14.60;1.40;;;16.17;100.00;95748.77;649427;212;31570;-71
2021/08/11 00:24:28;;;;;;;5.55;4.15;;;14.70;1.40;;;16.10;100.00;95750.72;645222;212;31561;-70
2021/08/11 00:27:10;;;;;;;5.80;3.87;;;14.70;1.40;;;16.14;100.00;95756.53;644661;216;32147;-70
2021/08/11 00:29:52;;;;;;;7.30;4.32;;;14.80;1.40;;;16.30;100.00;95752.16;645318;216;32166;-70
2021/08/11 00:32:33;;;;;;;4.85;3.90;;;14.80;1.40;;;16.43;100.00;95744.28;646832;212;43058;-70
2021/08/11 00:35:51;;;;;;;6.00;4.10;;;14.80;1.40;;;16.34;100.00;95739.57;645355;216;31629;-71
2021/08/11 00:38:33;;;;;;;4.77;4.20;;;14.70;1.40;;;16.32;100.00;95735.60;646112;212;32085;-71
2021/08/11 00:41:15;;;;;;;4.78;4.37;;;14.70;1.40;;;16.40;100.00;95735.28;636734;216;32126;-71
2021/08/11 00:43:57;;;;;;;4.47;4.07;;;14.50;1.40;;;16.32;100.00;95728.38;646734;212;31565;-71
2021/08/11 00:46:42;;;;;;;8.32;4.70;;;14.50;1.40;;;-143.44;100.00;122422.95;646028;215;31580;-71
2021/08/11 00:49:24;;;;;;;4.20;3.90;;;14.50;1.40;;;;;;647725;212;31555;-71
2021/08/11 00:52:05;;;;;;;5.07;4.53;;;14.60;1.40;;;;;;648562;212;31564;-70
2021/08/11 00:54:46;;;;;;;5.72;4.10;;;14.70;1.40;;;;;;649090;212;31561;-71
2021/08/11 00:57:30;;;;;;;4.50;4.10;;;14.80;1.40;;;;;;646683;216;31668;-71
2021/08/11 01:00:12;;;;;;;5.83;4.33;;;14.80;1.40;;;;;;649268;212;31562;-71
2021/08/11 01:02:53;;;;;;;4.57;4.13;;;14.70;1.40;;;;;;619331;226;31903;-72
2021/08/11 01:05:34;;;;;;;4.20;3.80;;;14.60;1.40;;;;;;647743;212;31563;-71
2021/08/11 01:08:15;;;;;;;5.20;4.17;;;14.40;1.40;;;;;;644769;212;31564;-71
2021/08/11 01:10:57;;;;;;;5.10;4.60;;;14.30;1.40;;;;;;617064;222;32100;-70
2021/08/11 01:13:40;;;;;;;7.50;4.40;;;14.50;1.40;;;;;;646937;216;31611;-71
2021/08/11 01:16:21;;;;;;;4.53;3.80;;;14.60;1.40;;;;;;644822;216;31598;-71
2021/08/11 01:19:02;;;;;;;4.85;4.30;;;14.70;1.40;;;;;;647174;216;31593;-71
2021/08/11 01:21:45;;;;;;;5.77;5.00;;;14.70;1.40;;;;;;645688;216;31585;-71
2021/08/11 01:24:46;;;;;;;6.20;4.30;;;14.70;1.40;;;;;;645981;212;31693;-70
2021/08/11 01:27:42;;;;;;;6.20;4.85;;;14.70;1.40;;;;;;649019;216;42805;-70
2021/08/11 01:30:28;;;;;;;4.80;4.40;;;14.70;1.40;;;;;;648840;216;31594;-71
2021/08/11 01:36:01;;;;;;;6.10;5.15;;;14.70;1.40;;;16.62;100.00;95747.55;648356;212;31599;-71
2021/08/11 01:38:42;;;;;;;5.85;4.22;;;14.80;1.40;;;16.45;100.00;95747.71;646484;212;31708;-70
2021/08/11 01:41:25;;;;;;;5.93;4.50;;;14.80;1.40;;;16.60;100.00;95749.38;635785;216;31817;-71
2021/08/11 01:44:09;;;;;;;4.80;3.95;;;14.70;1.40;;;16.44;100.00;95754.64;648744;216;31579;-71
2021/08/11 01:46:51;;;;;;;4.95;4.45;;;14.70;1.40;;;16.34;100.00;95755.13;646142;212;31578;-70
2021/08/11 01:52:10;;;;;;;4.82;4.30;;;14.40;1.40;;;16.01;100.00;95744.46;647857;212;31564;-71
2021/08/11 01:54:52;;;;;;;5.10;4.70;;;14.40;1.40;;;16.03;100.00;95739.78;646398;212;31568;-70
2021/08/11 01:57:33;;;;;;;5.45;4.70;;;14.30;1.40;;;16.00;100.00;95737.31;648459;216;31437;-71
2021/08/11 02:00:15;;;;;;;6.28;4.60;;;14.20;1.40;;;15.86;100.00;95736.01;649778;212;31560;-71
2021/08/11 02:02:57;;;;;;;5.78;4.60;;;14.10;1.40;;;15.75;100.00;95739.45;646190;212;31586;-70
2021/08/11 02:05:39;;;;;;;5.57;5.07;;;14.20;1.40;;;15.78;100.00;95736.70;647269;212;31606;-71
2021/08/11 02:08:21;;;;;;;6.85;4.90;;;14.30;1.40;;;15.83;100.00;95733.17;646497;216;31590;-71
2021/08/11 02:11:03;;;;;;;7.50;4.50;;;14.20;1.40;;;15.75;100.00;95732.97;647486;216;32313;-71
2021/08/11 02:13:45;;;;;;;5.32;4.80;;;14.20;1.40;;;15.73;100.00;95734.01;619522;225;32068;-71
2021/08/11 02:16:29;;;;;;;6.43;5.10;;;14.20;1.40;;;15.78;100.00;95727.60;646694;216;31595;-70
2021/08/11 02:19:11;;;;;;;6.72;4.32;;;14.30;1.40;;;15.76;100.00;95731.79;646711;216;42209;-70
2021/08/11 02:23:24;;;;;;;5.10;4.70;;;14.30;1.40;;;15.78;100.00;95746.80;648528;216;31593;-70
2021/08/11 02:26:10;;;;;;;5.50;4.80;;;14.30;1.40;;;15.81;100.00;95746.34;647794;216;31571;-70
2021/08/11 02:29:11;;;;;;;5.53;4.90;;;14.40;1.40;;;15.74;100.00;95745.58;647279;216;31601;-70
2021/08/11 02:32:03;;;;;;;4.80;4.37;;;14.30;1.40;;;15.75;100.00;95737.35;646610;216;34808;-71
2021/08/11 02:35:54;;;;;;;5.25;4.75;;;14.30;1.40;;;15.58;100.00;95733.33;619216;222;32569;-71
2021/08/11 02:38:36;;;;;;;5.70;4.80;;;14.20;1.40;;;15.52;100.00;95734.16;646294;216;31621;-70
2021/08/11 02:41:18;;;;;;;6.80;4.60;;;14.20;1.40;;;15.54;100.00;95735.88;640122;216;31713;-70
2021/08/11 02:44:17;;;;;;;5.95;4.80;;;14.20;1.40;;;15.55;100.00;95740.20;619312;226;32129;-71
2021/08/11 02:46:59;;;;;;;4.40;4.10;;;14.10;1.40;;;15.68;100.00;95736.34;645648;212;31563;-71
2021/08/11 02:49:40;;;;;;;5.00;4.50;;;14.10;1.40;;;15.82;100.00;95731.22;645515;212;31569;-71
2021/08/11 02:52:22;;;;;;;5.40;4.50;;;14.20;1.40;;;15.89;100.00;95732.41;646769;212;34477;-71
2021/08/11 02:55:04;;;;;;;5.05;4.43;;;14.20;1.40;;;15.98;100.00;95737.09;647833;216;31559;-70
2021/08/11 02:57:46;;;;;;;5.32;4.80;;;14.20;1.40;;;15.94;100.00;95738.30;645633;216;42351;-70
2021/08/11 03:00:28;;;;;;;6.30;5.12;;;14.30;1.40;;;16.03;100.00;95741.05;644579;212;31606;-71
2021/08/11 03:03:10;;;;;;;4.83;4.33;;;14.40;1.40;;;16.05;100.00;95744.94;647547;216;31541;-71
2021/08/11 03:05:51;;;;;;;5.10;4.60;;;14.40;1.40;;;16.05;100.00;95743.67;644316;212;31639;-70
2021/08/11 03:08:33;;;;;;;6.40;5.80;;;14.40;1.40;;;15.99;100.00;95746.00;618589;226;32049;-71
2021/08/11 03:11:15;;;;;;;5.20;4.70;;;14.50;1.40;;;15.93;100.00;95739.03;648193;216;32162;-71
2021/08/11 03:14:00;;;;;;;6.47;5.53;;;14.50;1.40;;;15.98;100.00;95733.72;622130;222;32093;-71
2021/08/11 03:16:41;;;;;;;5.70;5.10;;;14.50;1.40;;;15.92;100.00;95736.72;644333;212;31694;-70
2021/08/11 03:19:23;;;;;;;6.25;5.65;;;14.40;1.40;;;15.93;100.00;95739.52;646368;216;31709;-72
2021/08/11 03:22:04;;;;;;;5.57;5.07;;;14.30;1.40;;;16.03;100.00;95738.09;649783;212;31666;-71
2021/08/11 03:24:46;;;;;;;5.90;5.30;;;14.30;1.40;;;16.02;100.00;95739.36;647656;212;31990;-71
2021/08/11 03:27:28;;;;;;;5.40;4.90;;;14.30;1.40;;;15.95;100.00;95728.52;647587;212;31592;-70
2021/08/11 03:30:11;;;;;;;5.35;4.75;;;14.20;1.40;;;15.85;100.00;95727.81;647068;212;31550;-71
2021/08/11 03:32:53;;;;;;;5.35;4.85;;;14.20;1.40;;;15.76;100.00;95723.75;647157;212;31536;-71
2021/08/11 03:35:51;;;;;;;5.70;4.93;;;14.30;1.40;;;15.72;100.00;95720.00;644366;212;32253;-71
2021/08/11 03:38:32;;;;;;;6.15;4.80;;;14.10;1.40;;;15.64;100.00;95717.78;646277;212;33047;-71
2021/08/11 03:41:14;;;;;;;5.40;4.90;;;14.20;1.40;;;15.51;100.00;95718.05;649687;212;32081;-71
2021/08/11 03:43:56;;;;;;;5.30;4.80;;;14.00;1.40;;;15.51;100.00;95719.43;645225;216;32185;-71
2021/08/11 03:46:41;;;;;;;7.20;4.70;;;14.00;1.40;;;15.43;100.00;95720.78;620259;226;32050;-70
2021/08/11 03:49:22;;;;;;;5.90;5.30;;;13.80;1.40;;;15.41;100.00;95721.98;645131;212;31569;-71
2021/08/11 03:52:04;;;;;;;5.72;5.22;;;13.70;1.40;;;15.32;100.00;95728.55;645591;212;42273;-71
2021/08/11 03:54:49;;;;;;;5.90;5.30;;;13.70;1.40;;;15.30;100.00;95734.31;645901;216;31595;-70
2021/08/11 03:57:30;;;;;;;6.47;5.18;;;13.70;1.40;;;15.36;100.00;95727.59;645205;212;32154;-71
2021/08/11 04:00:12;;;;;;;5.87;5.27;;;13.70;1.40;;;15.37;100.00;95724.33;646639;212;31588;-72
2021/08/11 04:02:54;;;;;;;5.35;4.87;;;13.90;1.40;;;-143.44;100.00;122422.95;619270;226;33523;-71
2021/08/11 04:08:11;;;;;;;6.65;5.50;;;13.80;1.40;;;;;;646991;212;31581;-71
2021/08/11 04:10:52;;;;;;;5.70;5.10;;;13.90;1.40;;;;;;618773;226;32065;-71
2021/08/11 04:13:32;;;;;;;6.73;5.30;;;13.90;1.40;;;;;;646684;216;31657;-71
2021/08/11 04:16:13;;;;;;;7.37;5.20;;;13.70;1.40;;;;;;648911;212;31577;-71
2021/08/11 04:18:54;;;;;;;7.45;5.12;;;13.50;1.40;;;;;;646054;212;31554;-71
2021/08/11 04:24:12;;;;;;;5.07;4.57;;;13.40;1.40;;;;;;646906;216;31600;-71
2021/08/11 04:26:53;;;;;;;7.90;4.93;;;13.40;1.40;;;;;;646642;216;32201;-71
2021/08/11 04:29:34;;;;;;;4.70;4.30;;;13.40;1.40;;;;;;646334;212;31738;-71
2021/08/11 04:32:15;;;;;;;5.45;4.95;;;13.30;1.40;;;;;;649724;212;32454;-71
2021/08/11 04:35:51;;;;;;;5.60;5.00;;;13.20;1.40;;;15.02;100.00;95753.27;631423;222;31765;-71
2021/08/11 04:38:32;;;;;;;6.10;5.18;;;13.20;1.40;;;15.02;100.00;95749.23;644342;216;31897;-72
2021/08/11 04:41:14;;;;;;;6.20;5.60;;;13.30;1.40;;;15.12;100.00;95745.14;640406;212;42376;-71
2021/08/11 04:43:56;;;;;;;6.12;5.50;;;13.30;1.40;;;15.15;100.00;95744.05;619499;222;32724;-71
2021/08/11 04:46:39;;;;;;;7.40;5.50;;;13.50;1.40;;;15.18;100.00;95744.23;647167;216;31579;-71
2021/08/11 04:49:24;;;;;;;6.32;5.22;;;13.60;1.40;;;15.24;100.00;95743.66;646611;216;37549;-71
2021/08/11 04:52:06;;;;;;;6.50;5.80;;;13.60;1.40;;;15.33;100.00;95745.03;631340;221;31708;-71
2021/08/11 04:54:47;;;;;;;6.97;5.47;;;13.70;1.40;;;15.41;100.00;95745.30;646453;216;41044;-72
2021/08/11 04:57:29;;;;;;;6.40;5.80;;;13.70;1.40;;;15.45;100.00;95746.91;648150;216;38095;-72
2021/08/11 05:00:11;;;;;;;6.97;5.20;;;13.70;1.40;;;15.55;100.00;95752.09;645584;212;33473;-72
2021/08/11 05:02:53;;;;;;;6.85;5.70;;;13.80;1.40;;;15.64;100.00;95744.64;647442;212;31619;-71
2021/08/11 05:05:34;;;;;;;6.28;5.68;;;13.90;1.40;;;15.67;100.00;95743.05;645379;212;42562;-70
2021/08/11 05:08:16;;;;;;;6.35;5.70;;;14.00;1.40;;;15.76;100.00;95740.65;619943;225;42814;-71
2021/08/11 05:10:58;;;;;;;7.18;5.72;;;14.20;1.40;;;15.90;100.00;95746.53;645840;212;42565;-71
2021/08/11 05:14:19;;;;;;;6.05;5.45;;;14.30;1.40;;;16.02;100.00;95747.52;647734;212;31570;-70
2021/08/11 05:17:06;;;;;;;7.00;5.55;;;14.50;1.40;;;16.06;100.00;95744.95;647787;216;31567;-71
2021/08/11 05:19:50;;;;;;;6.28;5.37;;;14.70;1.40;;;16.17;100.00;95744.59;648588;216;42210;-70
2021/08/11 05:22:32;;;;;;;7.12;5.05;;;14.80;1.40;;;16.25;100.00;95745.68;649057;216;35463;-70
2021/08/11 05:25:14;;;;;;;5.60;5.05;;;14.80;1.40;;;16.46;100.00;95741.44;644676;216;31585;-70
2021/08/11 05:27:55;;;;;;;6.05;4.80;;;14.80;1.40;;;16.54;100.00;95746.52;649144;212;31769;-70
2021/08/11 05:30:41;;;;;;;5.60;5.10;;;14.80;1.40;;;16.67;100.00;95751.59;648472;216;31566;-71
2021/08/11 05:35:50;;;;;;;7.07;5.47;;;15.00;1.40;;;16.82;100.00;95750.58;646419;216;31543;-71
2021/08/11 05:38:32;;;;;;;5.95;5.07;;;15.20;1.40;;;16.77;100.00;95752.29;648646;212;31560;-71
2021/08/11 05:41:14;;;;;;;7.22;4.90;;;15.50;1.40;;;16.83;100.00;95751.95;637713;212;31918;-71
2021/08/11 05:43:56;;;;;;;6.10;5.50;;;15.60;1.40;;;16.94;100.00;95752.03;647142;212;31569;-71
2021/08/11 05:46:37;;;;;;;7.50;5.20;;;15.70;1.40;;;17.03;100.00;95757.20;646294;216;31611;-71
2021/08/11 05:49:25;;;;;;;5.15;4.75;;;15.80;1.40;;;17.16;100.00;95762.05;647038;212;31595;-72
2021/08/11 05:52:13;;;;;;;5.00;4.50;;;15.90;1.40;;;17.24;100.00;95762.42;647756;216;31586;-71
2021/08/11 05:54:54;;;;;;;5.68;4.87;;;15.90;1.40;;;17.35;100.00;95755.38;620750;222;31894;-71
2021/08/11 05:57:38;;;;;;;7.20;4.90;;;16.00;1.40;;;17.50;100.00;95758.32;646120;216;31579;-71
2021/08/11 06:00:22;;;;;;;6.43;4.70;;;16.20;1.40;;;17.73;100.00;95754.73;647685;212;31664;-71
2021/08/11 06:03:04;;;;;;;5.30;4.80;;;16.40;1.40;;;17.92;100.00;95754.71;646635;212;31555;-71
2021/08/11 06:05:46;;;;;;;5.20;4.70;;;16.60;1.40;;;18.18;100.00;95759.22;647603;212;31545;-70
2021/08/11 06:08:27;;;;;;;5.70;5.03;;;16.70;1.40;;;18.37;100.00;95761.59;646375;216;31573;-71
2021/08/11 06:11:09;;;;;;;5.22;4.30;;;16.70;1.40;;;18.54;100.00;95765.56;645466;216;32130;-71
2021/08/11 06:13:51;;;;;;;5.20;4.63;;;16.80;1.40;;;18.59;100.00;95769.55;647770;213;31573;-70
2021/08/11 06:16:36;;;;;;;5.20;4.70;;;17.00;1.40;;;18.65;100.00;95774.50;646248;212;31576;-70
2021/08/11 06:19:17;;;;;;;5.50;3.97;;;17.30;1.40;;;18.79;100.00;95769.58;647930;216;31565;-71
2021/08/11 06:21:59;;;;;;;4.90;4.40;;;17.50;1.40;;;18.86;100.00;95769.37;646197;216;31686;-70
2021/08/11 06:24:47;;;;;;;6.53;4.30;;;17.70;1.40;;;19.19;100.00;95769.44;645519;212;32190;-69
2021/08/11 06:27:28;;;;;;;5.60;4.40;;;17.90;1.40;;;19.29;100.00;95766.95;644834;216;32162;-70
2021/08/11 06:30:11;;;;;;;4.10;3.70;;;17.90;1.40;;;19.48;100.00;95768.27;647004;216;31959;-69
2021/08/11 06:32:52;;;;;;;4.40;3.75;;;18.10;1.40;;;19.62;100.00;95768.93;646362;216;31575;-69
2021/08/11 06:35:54;;;;;;;4.20;3.80;;;18.40;1.40;;;19.76;99.79;95764.61;646098;216;32348;-70
2021/08/11 06:38:36;;;;;;;3.97;3.53;;;18.40;1.40;;;19.96;100.00;95764.44;645763;216;31679;-68
2021/08/11 06:41:18;;;;;;;4.55;3.78;;;18.60;1.40;;;20.08;96.78;95765.97;638349;216;31784;-69
2021/08/11 06:44:03;;;;;;;3.78;3.42;;;18.80;1.40;;;20.21;95.42;95769.02;648809;212;31602;-71
2021/08/11 06:46:44;;;;;;;4.18;3.50;;;18.90;1.40;;;20.36;91.07;95768.62;618173;225;32466;-69
2021/08/11 06:49:26;;;;;;;3.28;2.90;;;19.00;1.40;;;20.47;91.85;95771.05;649119;212;31682;-69
2021/08/11 06:52:14;;;;;;;3.87;3.35;;;19.20;1.40;;;20.68;88.90;95767.45;621189;226;31959;-70
2021/08/11 06:55:02;;;;;;;4.90;2.80;;;19.30;1.40;;;20.75;83.49;95767.64;646678;212;31835;-69
2021/08/11 06:57:46;;;;;;;4.20;2.90;;;19.40;1.40;;;20.91;86.10;95770.51;645391;216;31643;-69
2021/08/11 07:00:25;;;;;;;3.60;3.00;;;19.50;1.40;;;21.03;81.62;95768.52;618990;222;32441;-69
2021/08/11 07:03:07;;;;;;;3.33;2.67;;;19.50;1.40;;;21.27;85.72;95765.61;645477;213;32127;-69
2021/08/11 07:05:49;;;;;;;3.40;3.10;;;19.50;1.40;;;21.19;81.93;95769.84;645311;212;32119;-69
2021/08/11 07:08:31;;;;;;;4.20;2.90;;;19.70;1.40;;;21.23;80.90;95768.04;646607;212;32127;-71
2021/08/11 07:11:19;;;;;;;2.70;2.50;;;19.90;1.40;;;21.44;77.81;95767.38;645847;216;31578;-70
2021/08/11 07:14:00;;;;;;;2.30;2.10;;;20.00;1.40;;;21.59;77.51;95770.13;647999;212;42965;-72
2021/08/11 07:16:45;;;;;;;3.00;2.70;;;20.00;1.40;;;21.60;76.29;95772.53;642604;215;31640;-70
2021/08/11 07:19:29;;;;;;;3.10;2.60;;;20.20;1.40;;;21.66;74.71;95770.17;647311;212;31545;-71
2021/08/11 07:22:16;;;;;;;2.65;2.10;;;20.30;1.40;;;21.95;75.22;95771.77;647779;216;31573;-71
2021/08/11 07:24:58;;;;;;;3.60;1.70;;;20.40;1.40;;;22.10;72.87;95772.10;648755;212;42218;-72
2021/08/11 07:27:40;;;;;;;2.53;2.00;;;20.70;1.40;;;22.24;71.12;95773.71;618415;222;31864;-70
2021/08/11 07:30:22;;;;;;;2.20;2.00;;;20.70;1.40;;;-143.44;100.00;122422.95;645714;216;31592;-71
2021/08/11 07:35:51;;;;;;;2.85;1.77;;;20.80;1.40;;;;;;647059;216;31747;-71
2021/08/11 07:38:32;;;;;;;2.17;1.85;;;21.00;1.40;;;;;;646905;216;31549;-71
2021/08/11 07:41:13;;;;;;;2.10;1.55;;;21.10;1.40;;;;;;637936;212;31732;-71
2021/08/11 07:44:03;;;;;;;3.00;2.17;;;21.10;1.40;;;;;;645884;216;31589;-73
2021/08/11 07:46:50;;;;;;;2.00;1.70;;;21.10;1.40;;;;;;644624;216;31945;-71
2021/08/11 07:49:31;;;;;;;2.40;1.85;;;21.30;1.40;;;;;;647324;216;31685;-71
2021/08/11 07:52:12;;;;;;;1.90;1.70;;;21.30;1.40;;;;;;646224;216;31808;-70
2021/08/11 07:55:00;;;;;;;2.30;1.70;;;21.40;1.40;;;;;;646686;216;31596;-71
2021/08/11 07:57:46;;;;;;;2.47;1.90;;;21.40;1.40;;;;;;644852;212;32189;-70
2021/08/11 08:00:33;;;;;;;3.12;1.90;;;21.40;1.40;;;;;;645374;216;32023;-72
2021/08/11 08:03:20;;;;;;;1.80;1.70;;;21.60;1.40;;;;;;647552;216;31719;-72
2021/08/11 08:06:01;;;;;;;2.30;2.10;;;21.90;1.40;;;;;;646470;212;31574;-71
2021/08/11 08:08:42;;;;;;;3.05;2.40;;;21.90;1.40;;;;;;644925;216;31548;-71
2021/08/11 08:11:23;;;;;;;3.00;1.90;;;22.00;1.40;;;;;;619422;222;32608;-70
2021/08/11 08:16:40;;;;;;;2.10;1.70;;;22.00;1.40;;;;;;645276;212;31734;-71
2021/08/11 08:19:21;;;;;;;2.00;1.80;;;22.40;1.40;;;;;;647368;216;31588;-72
2021/08/11 08:22:04;;;;;;;2.47;1.90;;;22.60;1.40;;;;;;647407;216;31553;-71
2021/08/11 08:25:22;;;;;;;2.58;2.30;;;22.60;1.40;;;;;;645880;216;31929;-71
2021/08/11 08:28:03;;;;;;;2.83;2.30;;;22.50;1.40;;;;;;647923;212;42221;-71
2021/08/11 08:30:44;;;;;;;2.37;2.10;;;22.70;1.40;;;;;;645072;212;31613;-71
2021/08/11 08:35:51;;;;;;;2.30;1.90;;;22.80;1.40;;;24.35;61.52;95776.02;646952;216;32184;-70
2021/08/11 08:38:33;;;;;;;2.83;2.25;;;23.00;1.40;;;24.75;62.68;95774.24;645575;216;32436;-71
2021/08/11 08:41:15;;;;;;;2.67;2.45;;;23.20;1.40;;;24.95;60.97;95772.66;646221;212;32450;-71
2021/08/11 08:43:56;;;;;;;2.80;2.50;;;23.30;1.40;;;24.78;58.39;95773.48;646695;216;31835;-71
2021/08/11 08:46:37;;;;;;;2.50;2.30;;;23.30;1.40;;;;;;645096;216;31590;-72
2021/08/11 08:49:19;;;;;;;3.62;2.50;;;23.60;1.40;;;;;;647280;212;31739;-70
2021/08/11 08:51:59;;;;;;;5.00;3.87;;;23.50;1.40;;;;;;647754;212;31703;-71
2021/08/11 08:54:47;;;;;;;4.50;3.60;;;23.30;1.40;;;;;;646643;216;31953;-71
2021/08/11 08:57:30;;;;;;;4.00;3.10;;;23.50;1.40;;;;;;646473;216;31733;-71
2021/08/11 09:00:11;;;;;;;3.37;3.08;;;23.70;1.40;;;;;;646841;212;31545;-72
2021/08/11 09:02:52;;;;;;;3.33;3.00;;;23.60;1.40;;;;;;646735;216;31842;-71
2021/08/11 09:05:39;;;;;;;3.37;3.08;;;24.00;1.40;;;;;;646921;216;31618;-72
2021/08/11 09:08:26;;;;;;;3.50;2.53;;;24.40;1.40;;;;;;646289;216;31577;-71
2021/08/11 09:11:14;;;;;;;3.50;3.20;;;24.50;1.40;;;;;;645437;216;31961;-72
2021/08/11 09:14:10;;;;;;;3.75;2.80;;;24.60;1.40;;;;;;646313;212;31591;-71
2021/08/11 09:16:53;;;;;;;3.40;3.10;;;25.60;1.40;;;;;;645791;212;33291;-71
2021/08/11 09:19:41;;;;;;;3.37;3.07;;;27.60;1.40;;;;;;648126;212;32122;-71
2021/08/11 09:22:22;;;;;;;3.35;3.05;;;29.60;1.40;;;;;;647284;212;31613;-72
2021/08/11 09:25:05;;;;;;;3.72;2.80;;;30.10;1.40;;;;;;648163;216;31588;-71
2021/08/11 09:27:46;;;;;;;3.10;2.80;;;30.00;1.40;;;;;;646902;216;31575;-71
2021/08/11 09:30:27;;;;;;;2.90;2.60;;;30.40;1.40;;;;;;647592;216;31780;-72
2021/08/11 09:35:54;;;;;;;3.28;2.87;;;30.90;1.40;;;32.47;42.55;95765.90;646750;216;31958;-72
2021/08/11 09:38:37;;;;;;;2.70;2.37;;;29.70;1.40;;;31.34;42.73;95761.92;647204;216;31596;-73
2021/08/11 09:41:25;;;;;;;2.80;2.60;;;28.90;1.40;;;34.30;40.70;95753.28;636181;216;31746;-71
2021/08/11 09:44:10;;;;;;;2.90;2.70;;;30.80;1.40;;;-143.44;100.00;122422.95;645920;212;43090;-70
2021/08/11 09:46:50;;;;;;;3.10;2.80;;;32.90;1.40;;;;;;647107;216;31752;-70
2021/08/11 09:49:32;;;;;;;3.20;3.00;;;32.70;1.40;;;;;;646458;215;31668;-71
2021/08/11 09:52:13;;;;;;;3.37;3.08;;;31.00;1.40;;;;;;646468;212;33297;-71
2021/08/11 09:54:58;;;;;;;3.40;3.03;;;29.40;1.40;;;;;;646973;216;31970;-71
2021/08/11 09:57:38;;;;;;;3.50;3.20;;;28.00;1.40;;;;;;646048;212;31710;-70
2021/08/11 10:05:35;;;;;;;3.20;3.00;;;31.30;1.40;;;;;;647396;212;31633;-71
2021/08/11 10:08:17;;;;;;;3.80;3.50;;;31.50;1.40;;;;;;648290;212;32000;-70
2021/08/11 10:10:57;;;;;;;3.83;3.40;;;31.60;1.40;;;;;;647641;216;31770;-71
2021/08/11 10:13:39;;;;;;;4.10;3.00;;;33.10;1.40;;;;;;647078;216;31590;-71
2021/08/11 10:16:19;;;;;;;3.78;2.85;;;32.80;1.40;;;;;;647508;216;31633;-72
2021/08/11 10:19:02;;;;;;;3.60;3.30;;;31.80;1.40;;;;;;645021;216;31713;-71
2021/08/11 10:21:44;;;;;;;4.00;3.60;;;28.90;1.40;;;;;;618981;222;32052;-71
2021/08/11 10:24:25;;;;;;;3.72;3.42;;;30.30;1.40;;;;;;646756;216;31783;-71
2021/08/11 10:27:06;;;;;;;3.87;3.28;;;32.10;1.40;;;;;;645441;216;31590;-70
2021/08/11 10:29:47;;;;;;;4.12;3.53;;;30.80;1.40;;;;;;647182;216;31598;-71
2021/08/11 10:32:28;;;;;;;3.50;3.20;;;28.80;1.40;;;;;;647076;216;31596;-71
2021/08/11 10:35:51;;;;;;;3.67;3.37;;;31.50;1.40;;;37.10;33.44;95744.05;647281;212;31573;-71
2021/08/11 10:38:39;;;;;;;3.30;3.00;;;32.20;1.40;;;38.15;31.72;95738.69;647032;216;31662;-72
2021/08/11 10:41:21;;;;;;;3.50;3.20;;;31.70;1.40;;;36.64;32.70;95740.29;636267;216;32135;-70
2021/08/11 10:44:03;;;;;;;4.15;3.75;;;30.00;1.40;;;35.31;35.28;95737.69;646061;216;33984;-70
2021/08/11 10:46:46;;;;;;;3.70;3.40;;;29.60;1.40;;;35.17;35.80;95741.66;619420;226;32050;-69
2021/08/11 10:49:31;;;;;;;3.53;3.22;;;29.70;1.40;;;-143.44;100.00;122422.95;645479;216;31653;-70
2021/08/11 10:52:14;;;;;;;6.90;3.35;;;29.20;1.40;;;;;;642877;215;31734;-69
2021/08/11 10:54:56;;;;;;;3.85;3.05;;;28.40;1.40;;;;;;647046;212;31607;-69
2021/08/11 10:57:45;;;;;;;4.50;3.40;;;27.80;1.40;;;;;;647095;216;31759;-70
2021/08/11 11:00:41;;;;;;;3.80;3.30;;;29.40;1.40;;;;;;620151;225;32240;-71
2021/08/11 11:03:44;;;;;;;3.70;3.40;;;31.40;1.40;;;;;;645858;216;31572;-70
2021/08/11 11:06:25;;;;;;;3.50;3.20;;;31.30;1.40;;;;;;647179;216;31600;-72
2021/08/11 11:09:19;;;;;;;4.20;3.80;;;29.50;1.40;;;;;;646472;216;42268;-72
2021/08/11 11:12:00;;;;;;;5.00;3.70;;;27.60;1.40;;;;;;647029;212;31566;-71
2021/08/11 11:14:44;;;;;;;4.28;3.60;;;27.20;1.40;;;;;;646110;216;32937;-71
2021/08/11 11:17:26;;;;;;;3.80;3.50;;;28.10;1.40;;;;;;646497;216;31601;-71
2021/08/11 11:20:22;;;;;;;4.37;3.90;;;30.00;1.40;;;;;;645203;212;31770;-72
2021/08/11 11:23:04;;;;;;;3.65;3.35;;;30.50;1.40;;;;;;646872;212;31703;-71
2021/08/11 11:26:05;;;;;;;3.67;3.37;;;29.80;1.40;;;;;;647082;216;42260;-72
2021/08/11 11:28:55;;;;;;;3.87;3.25;;;31.00;1.40;;;;;;645988;216;31678;-72
2021/08/11 11:31:43;;;;;;;4.28;3.87;;;30.60;1.40;;;;;;646420;212;31834;-72
2021/08/11 11:36:21;;;;;;;4.20;3.50;;;29.70;1.40;;;34.62;35.31;95729.09;646572;216;32379;-72
2021/08/11 11:39:03;;;;;;;3.70;3.40;;;29.90;1.40;;;33.06;38.76;95730.33;646233;212;31984;-72
2021/08/11 11:42:22;;;;;;;4.40;3.95;;;29.60;1.40;;;33.02;37.50;95734.36;634534;216;31888;-72
2021/08/11 11:45:03;;;;;;;3.60;3.30;;;30.00;1.40;;;31.72;40.21;95735.13;646974;212;31565;-72
2021/08/11 11:48:05;;;;;;;4.07;3.67;;;30.10;1.40;;;32.75;37.98;95736.88;646195;212;32133;-71
2021/08/11 11:51:00;;;;;;;3.35;3.15;;;29.70;1.40;;;31.71;39.26;95734.89;645887;216;31853;-72
2021/08/11 11:53:48;;;;;;;4.00;3.70;;;27.80;1.40;;;33.05;38.14;95730.49;646743;216;31796;-72
2021/08/11 11:56:35;;;;;;;4.50;4.10;;;29.90;1.40;;;32.74;38.52;95729.77;646504;216;31564;-72
2021/08/11 11:59:19;;;;;;;4.60;4.20;;;29.60;1.40;;;35.51;33.27;95733.13;646053;212;31734;-71
2021/08/11 12:02:01;;;;;;;5.50;5.10;;;31.50;1.40;;;34.82;32.77;95728.78;646154;212;42294;-72
2021/08/11 12:04:42;;;;;;;5.75;4.70;;;30.70;1.40;;;35.72;33.03;95730.25;647352;212;31593;-72
2021/08/11 12:07:27;;;;;;;5.25;4.75;;;31.60;1.40;;;37.50;30.95;95721.23;645460;216;31603;-71
2021/08/11 12:10:09;;;;;;;4.80;4.35;;;32.40;1.40;;;38.60;30.98;95715.95;646575;212;31667;-72
2021/08/11 12:13:02;;;;;;;5.60;5.10;;;33.50;1.40;;;35.01;33.90;95724.04;646806;212;31684;-72
2021/08/11 12:15:44;;;;;;;5.32;4.85;;;31.50;1.40;;;33.06;35.31;95722.41;646855;212;31596;-72
2021/08/11 12:18:28;;;;;;;5.10;4.70;;;30.30;1.40;;;33.82;34.59;95717.14;645852;212;31623;-72
2021/08/11 12:21:10;;;;;;;4.87;4.47;;;30.50;1.40;;;-143.44;100.00;122422.95;645245;214;31634;-71
2021/08/11 12:23:57;;;;;;;5.20;4.80;;;29.70;1.40;;;;;;647314;216;31610;-72
2021/08/11 12:26:47;;;;;;;5.40;5.00;;;31.10;1.40;;;;;;646771;216;31734;-72
2021/08/11 12:29:30;;;;;;;5.40;4.90;;;30.90;1.40;;;;;;646315;212;31738;-72
2021/08/11 12:32:09;;;;;;;5.70;5.20;;;30.70;1.40;;;;;;646659;216;31603;-72
2021/08/11 12:35:52;;;;;;;5.10;4.70;;;31.80;1.40;;;34.36;35.35;95706.01;647774;212;31724;-71
2021/08/11 12:38:35;;;;;;;5.40;4.90;;;30.70;1.40;;;34.22;34.07;95705.91;645585;216;31749;-71
2021/08/11 12:43:57;;;;;;;5.55;5.05;;;30.00;1.40;;;32.25;37.50;95708.08;647021;216;42353;-72
2021/08/11 12:46:48;;;;;;;5.30;4.90;;;28.00;1.40;;;32.45;37.64;95710.03;646439;216;31746;-71
2021/08/11 12:49:39;;;;;;;6.03;4.80;;;29.90;1.40;;;35.02;34.61;95702.47;646042;212;31970;-71
2021/08/11 12:52:22;;;;;;;5.72;5.32;;;31.70;1.40;;;35.99;32.81;95698.37;619031;226;31999;-72
2021/08/11 12:55:09;;;;;;;5.75;5.05;;;32.00;1.40;;;35.11;33.92;95700.02;646071;216;31629;-72
2021/08/11 12:57:51;;;;;;;6.60;4.97;;;31.30;1.40;;;35.42;34.82;95699.81;619160;226;32775;-72
2021/08/11 13:00:39;;;;;;;5.07;4.68;;;31.50;1.40;;;36.77;32.37;95698.47;619902;222;32624;-72
2021/08/11 13:03:20;;;;;;;5.87;5.28;;;32.20;1.40;;;-143.44;100.00;122422.95;646536;216;31622;-72